Terminal Aerodrome Forecast
Issued by NWS Jackson, KY

Home | Current Version | Previous Version | Text Only | Print | Product List | Glossary On
Versions: 1 2 3 4 5 6 7 8 9 10 11 12 13 14 15 16 17 18 19 20
000
FTUS43 KJKL 042328
TAFLOZ
TAF
KLOZ 042328Z 0500/0524 VRB03KT 4SM RA BR SCT005 OVC012
     FM050100 VRB03KT 2SM RA BR OVC005
     FM050300 VRB03KT 3SM -RAPLSN BR OVC004
     FM050700 35008KT 1/2SM SN SCT006 OVC012=

USA.gov is the U.S. government's official web portal to all federal, state and local government web resources and services.